Terminal Aerodrome Forecast
Issued by NWS Paducah, KY

Home | Current Version | Previous Version | Text Only | Print | Product List | Glossary Off
Versions: 1 2 3 4 5 6 7 8 9 10 11 12 13

766
FTUS43 KPAH 211120
TAFEVV
TAF
KEVV 211120Z 2112/2212 16005KT P6SM SCT060 BKN150
     FM211700 18009KT P6SM VCSH SCT030 BKN100
      TEMPO 2121/2201 4SM -TSRA BKN030CB
     FM220300 19004KT P6SM FEW035 BKN100=

USA.gov is the U.S. government's official web portal to all federal, state and local government web resources and services.